createdAt,value
2019-03-18T00:00:28.186Z,9.78
2019-03-18T00:02:56.751Z,10.38
2019-03-18T00:05:25.193Z,11.18
2019-03-18T00:07:53.623Z,9.73
2019-03-18T00:10:22.073Z,15.90
2019-03-18T00:12:52.152Z,11.22
2019-03-18T00:15:20.960Z,10.38
2019-03-18T00:17:49.513Z,9.75
2019-03-18T00:20:17.952Z,10.35
2019-03-18T00:22:46.448Z,9.05
2019-03-18T00:25:15.606Z,12.28
2019-03-18T00:27:44.129Z,6.97
2019-03-18T00:30:15.470Z,9.50
2019-03-18T00:32:43.915Z,9.70
2019-03-18T00:35:12.424Z,10.08
2019-03-18T00:37:40.865Z,10.23
2019-03-18T00:40:12.713Z,11.53
2019-03-18T00:42:41.126Z,9.83
2019-03-18T00:45:14.991Z,12.13
2019-03-18T00:47:41.204Z,13.83
2019-03-18T00:50:12.400Z,11.88
2019-03-18T00:52:40.870Z,7.47
2019-03-18T00:55:10.152Z,12.68
2019-03-18T00:57:40.296Z,8.08
2019-03-18T01:00:11.888Z,8.08
2019-03-18T01:02:40.334Z,13.50
2019-03-18T01:05:08.921Z,8.10
2019-03-18T01:07:37.422Z,10.13
2019-03-18T01:10:16.992Z,8.23
2019-03-18T01:12:45.487Z,10.38
2019-03-18T01:15:26.891Z,11.08
2019-03-18T01:17:44.705Z,10.25
2019-03-18T01:20:14.255Z,7.55
2019-03-18T01:22:42.877Z,11.78
2019-03-18T01:25:11.575Z,8.80
2019-03-18T01:27:40.489Z,13.50
2019-03-18T01:30:11.721Z,7.58
2019-03-18T01:32:40.156Z,9.40
2019-03-18T01:35:10.261Z,10.58
2019-03-18T01:37:38.781Z,8.75
2019-03-18T01:40:10.529Z,8.83
2019-03-18T01:42:38.986Z,9.45
2019-03-18T01:45:08.931Z,12.58
2019-03-18T01:47:37.378Z,10.32
2019-03-18T01:50:11.079Z,9.78
2019-03-18T01:52:39.576Z,10.98
2019-03-18T01:55:08.022Z,8.10
2019-03-18T01:57:36.465Z,10.43
2019-03-18T02:00:08.282Z,8.80
2019-03-18T02:02:36.697Z,7.67
2019-03-18T02:05:06.592Z,6.35
2019-03-18T02:07:35.070Z,7.60
2019-03-18T02:10:05.803Z,8.98
2019-03-18T02:12:34.225Z,5.78
2019-03-18T02:15:02.737Z,7.92
2019-03-18T02:17:31.168Z,8.95
2019-03-18T02:19:59.602Z,10.55
2019-03-18T02:22:28.045Z,12.55
2019-03-18T02:24:56.485Z,7.40
2019-03-18T02:27:24.931Z,15.08
2019-03-18T02:29:53.351Z,10.80
2019-03-18T02:32:21.795Z,10.35
2019-03-18T02:34:50.219Z,13.88
2019-03-18T02:37:18.678Z,8.88
2019-03-18T02:39:47.182Z,10.38
2019-03-18T02:42:15.689Z,11.83
2019-03-18T02:44:44.132Z,10.13
2019-03-18T02:47:12.626Z,10.03
2019-03-18T02:49:41.103Z,10.98
2019-03-18T02:52:09.594Z,16.57
2019-03-18T02:54:38.087Z,10.63
2019-03-18T02:57:06.583Z,14.53
2019-03-18T02:59:35.121Z,11.15
2019-03-18T03:02:03.698Z,14.03
2019-03-18T03:04:32.210Z,11.50
2019-03-18T03:07:00.626Z,10.60
2019-03-18T03:09:29.627Z,10.25
2019-03-18T03:11:58.060Z,13.40
2019-03-18T03:14:26.520Z,10.55
2019-03-18T03:16:54.954Z,13.68
2019-03-18T03:19:23.409Z,12.00
2019-03-18T03:21:51.849Z,12.90
2019-03-18T03:24:20.286Z,12.37
2019-03-18T03:26:48.742Z,10.58
2019-03-18T03:29:17.265Z,13.60
2019-03-18T03:31:45.744Z,13.32
2019-03-18T03:34:14.643Z,11.50
2019-03-18T03:36:43.147Z,11.08
2019-03-18T03:39:11.603Z,8.63
2019-03-18T03:41:40.142Z,15.80
2019-03-18T03:44:08.622Z,13.20
2019-03-18T03:46:43.831Z,15.10
2019-03-18T03:49:07.204Z,13.03
2019-03-18T03:51:35.657Z,12.43
2019-03-18T03:54:04.102Z,15.15
2019-03-18T03:56:34.599Z,17.92
2019-03-18T03:59:03.034Z,12.78
2019-03-18T04:01:31.535Z,14.90
2019-03-18T04:04:00.043Z,15.13
2019-03-18T04:06:28.487Z,15.05
2019-03-18T04:08:57.015Z,20.68
2019-03-18T04:11:25.634Z,16.52
2019-03-18T04:13:54.123Z,12.88
2019-03-18T04:16:22.589Z,17.52
2019-03-18T04:18:51.102Z,15.38
2019-03-18T04:21:19.568Z,17.48
2019-03-18T04:23:47.987Z,16.40
2019-03-18T04:26:16.520Z,18.67
2019-03-18T04:28:44.957Z,19.92
2019-03-18T04:31:13.443Z,21.40
2019-03-18T04:33:41.898Z,22.27
2019-03-18T04:36:10.315Z,19.82
2019-03-18T04:38:41.230Z,25.50
2019-03-18T04:41:09.661Z,20.00
2019-03-18T04:43:38.105Z,15.78
2019-03-18T04:46:06.550Z,19.48
2019-03-18T04:48:35.081Z,20.48
2019-03-18T04:51:03.515Z,32.23
2019-03-18T04:53:32.011Z,21.42
2019-03-18T04:56:00.446Z,21.23
2019-03-18T04:58:28.890Z,21.73
2019-03-18T05:00:57.322Z,26.25
2019-03-18T05:03:25.773Z,31.07
2019-03-18T05:05:54.225Z,19.77
2019-03-18T05:08:22.665Z,27.07
2019-03-18T05:10:51.109Z,24.87
2019-03-18T05:13:19.597Z,25.20
2019-03-18T05:15:48.105Z,24.67
2019-03-18T05:18:16.644Z,20.77
2019-03-18T05:20:45.069Z,21.20
2019-03-18T05:23:13.495Z,21.33
2019-03-18T05:25:41.955Z,27.22
2019-03-18T05:28:10.372Z,25.77
2019-03-18T05:30:38.834Z,20.90
2019-03-18T05:33:07.267Z,22.05
2019-03-18T05:35:35.770Z,21.97
2019-03-18T05:38:04.236Z,26.02
2019-03-18T05:40:32.683Z,21.35
2019-03-18T05:43:01.133Z,20.65
2019-03-18T05:45:29.572Z,31.27
2019-03-18T05:47:57.995Z,25.70
2019-03-18T05:50:26.444Z,30.20
2019-03-18T05:52:54.862Z,28.20
2019-03-18T05:55:23.298Z,21.62
2019-03-18T05:57:51.740Z,35.33
2019-03-18T06:00:20.172Z,29.92
2019-03-18T06:02:48.595Z,26.02
2019-03-18T06:05:17.062Z,22.87
2019-03-18T06:07:45.481Z,32.05
2019-03-18T06:10:14.322Z,35.65
2019-03-18T06:12:42.905Z,39.45
2019-03-18T06:15:12.502Z,27.70
2019-03-18T06:17:51.550Z,32.33
2019-03-18T06:20:32.075Z,27.87
2019-03-18T06:23:00.508Z,37.17
2019-03-18T06:25:28.937Z,30.15
2019-03-18T06:27:57.378Z,31.40
2019-03-18T06:30:25.804Z,32.85
2019-03-18T06:32:54.246Z,31.10
2019-03-18T06:35:22.722Z,29.82
2019-03-18T06:37:51.139Z,33.35
2019-03-18T06:40:19.584Z,30.72
2019-03-18T06:42:48.041Z,36.63
2019-03-18T06:45:16.459Z,33.02
2019-03-18T06:47:44.894Z,31.97
2019-03-18T06:50:13.694Z,28.98
2019-03-18T06:52:42.146Z,39.48
2019-03-18T06:55:10.667Z,31.80
2019-03-18T06:57:39.115Z,25.45
2019-03-18T07:00:15.439Z,38.48
2019-03-18T07:02:43.899Z,30.12
2019-03-18T07:05:12.451Z,31.95
2019-03-18T07:07:40.883Z,26.45
2019-03-18T07:10:15.106Z,33.10
2019-03-18T07:12:43.527Z,37.83
2019-03-18T07:15:12.128Z,34.55
2019-03-18T07:17:40.644Z,31.35
2019-03-18T07:20:11.138Z,37.10
2019-03-18T07:22:39.565Z,39.15
2019-03-18T07:25:08.265Z,42.40
2019-03-18T07:27:36.709Z,30.97
2019-03-18T07:30:07.950Z,30.60
2019-03-18T07:32:36.391Z,28.47
2019-03-18T07:35:11.188Z,37.15
2019-03-18T07:37:39.610Z,36.90
2019-03-18T07:40:14.012Z,28.57
2019-03-18T07:42:42.497Z,36.77
2019-03-18T07:45:11.965Z,32.78
2019-03-18T07:47:40.417Z,32.58
2019-03-18T07:50:10.993Z,29.52
2019-03-18T07:52:39.445Z,33.63
2019-03-18T07:55:08.829Z,33.75
2019-03-18T07:57:37.247Z,29.80
2019-03-18T08:00:11.457Z,26.35
2019-03-18T08:02:39.873Z,32.75
2019-03-18T08:05:09.542Z,30.95
2019-03-18T08:07:37.968Z,30.02
2019-03-18T08:10:09.633Z,25.35
2019-03-18T08:12:38.077Z,30.37
2019-03-18T08:15:10.763Z,28.60
2019-03-18T08:17:39.192Z,34.73
2019-03-18T08:20:09.793Z,26.25
2019-03-18T08:22:38.225Z,29.12
2019-03-18T08:25:08.213Z,31.48
2019-03-18T08:27:36.661Z,31.93
2019-03-18T08:30:11.098Z,31.73
2019-03-18T08:32:39.546Z,26.57
2019-03-18T08:35:08.039Z,28.38
2019-03-18T08:37:36.498Z,31.52
2019-03-18T08:40:07.798Z,27.98
2019-03-18T08:42:36.215Z,23.45
2019-03-18T08:45:07.350Z,29.42
2019-03-18T08:47:35.797Z,32.25
2019-03-18T08:50:23.563Z,24.50
2019-03-18T08:52:52.003Z,29.27
2019-03-18T08:55:20.525Z,32.60
2019-03-18T08:57:48.949Z,29.77
2019-03-18T09:00:18.134Z,29.55
2019-03-18T09:02:46.585Z,28.62
2019-03-18T09:05:15.078Z,28.52
2019-03-18T09:07:43.570Z,23.90
2019-03-18T09:10:14.437Z,33.75
2019-03-18T09:12:48.951Z,22.60
2019-03-18T09:15:17.377Z,37.35
2019-03-18T09:17:45.806Z,33.83
2019-03-18T09:20:19.309Z,35.60
2019-03-18T09:22:47.828Z,34.53
2019-03-18T09:25:16.239Z,40.85
2019-03-18T09:27:44.690Z,32.55
2019-03-18T09:30:34.004Z,27.52
2019-03-18T09:33:05.347Z,31.50
2019-03-18T09:35:33.775Z,20.48
2019-03-18T09:38:02.299Z,23.20
2019-03-18T09:40:30.735Z,30.08
2019-03-18T09:42:59.178Z,21.95
2019-03-18T09:45:27.621Z,22.73
2019-03-18T09:47:56.332Z,34.67
2019-03-18T09:50:24.967Z,17.35
2019-03-18T09:52:53.394Z,25.80
2019-03-18T09:55:21.814Z,28.60
2019-03-18T09:59:19.421Z,28.87
2019-03-18T10:01:47.837Z,34.20
2019-03-18T10:04:16.266Z,33.65
2019-03-18T10:06:44.733Z,39.15
2019-03-18T10:09:13.163Z,45.28
2019-03-18T10:11:41.584Z,42.93
2019-03-18T10:14:10.039Z,41.53
2019-03-18T10:16:38.453Z,32.53
2019-03-18T10:19:06.904Z,40.05
2019-03-18T10:21:35.412Z,41.13
2019-03-18T10:24:03.850Z,37.00
2019-03-18T10:26:32.363Z,41.23
2019-03-18T10:29:00.794Z,36.33
2019-03-18T10:31:29.217Z,30.55
2019-03-18T10:33:57.642Z,34.10
2019-03-18T10:36:26.080Z,35.35
2019-03-18T10:38:54.505Z,31.35
2019-03-18T10:41:23.035Z,24.10
2019-03-18T10:43:51.445Z,26.65
2019-03-18T10:46:19.884Z,17.60
2019-03-18T10:48:48.322Z,12.30
2019-03-18T10:51:16.747Z,14.70
2019-03-18T10:53:45.219Z,16.73
2019-03-18T10:56:13.706Z,14.35
2019-03-18T10:58:42.128Z,29.45
2019-03-18T11:01:10.558Z,33.92
2019-03-18T11:03:39.160Z,27.52
2019-03-18T11:06:07.594Z,36.00
2019-03-18T11:08:36.036Z,39.33
2019-03-18T11:11:04.470Z,36.53
2019-03-18T11:13:32.913Z,42.15
2019-03-18T11:16:01.358Z,39.13
2019-03-18T11:18:29.777Z,37.08
2019-03-18T11:20:58.308Z,19.65
2019-03-18T11:23:26.745Z,13.80
2019-03-18T11:25:55.182Z,14.38
2019-03-18T11:28:23.637Z,13.70
2019-03-18T11:30:52.063Z,15.40
2019-03-18T11:33:20.504Z,13.60
2019-03-18T11:35:49.487Z,22.40
2019-03-18T11:38:17.911Z,18.62
2019-03-18T11:40:46.455Z,22.13
2019-03-18T11:43:14.948Z,24.32
2019-03-18T11:45:43.405Z,22.93
2019-03-18T11:48:11.890Z,26.48
2019-03-18T11:50:41.533Z,19.48
2019-03-18T11:53:14.471Z,21.62
2019-03-18T11:55:40.372Z,25.37
2019-03-18T11:58:08.824Z,22.55
2019-03-18T12:00:37.314Z,29.25
2019-03-18T12:03:05.824Z,28.10
2019-03-18T12:05:34.295Z,28.38
2019-03-18T12:08:02.787Z,30.10
2019-03-18T12:10:31.241Z,37.53
2019-03-18T12:12:59.732Z,39.10
2019-03-18T12:15:28.330Z,32.80
2019-03-18T12:17:56.808Z,34.95
2019-03-18T12:20:25.922Z,30.57
2019-03-18T12:22:54.582Z,28.77
2019-03-18T12:25:23.102Z,26.65
2019-03-18T12:27:51.543Z,30.00
2019-03-18T12:30:43.555Z,32.90
2019-03-18T12:33:11.984Z,29.52
2019-03-18T12:35:40.481Z,34.58
2019-03-18T12:38:08.925Z,31.93
2019-03-18T12:40:37.347Z,36.00
2019-03-18T12:43:25.137Z,30.27
2019-03-18T12:46:12.922Z,33.95
2019-03-18T12:48:41.347Z,32.13
2019-03-18T12:51:09.766Z,33.78
2019-03-18T12:53:38.202Z,38.00
2019-03-18T12:56:06.694Z,31.57
2019-03-18T12:58:35.157Z,25.40
2019-03-18T13:01:12.470Z,25.65
2019-03-18T13:03:33.823Z,28.15
2019-03-18T13:06:02.275Z,22.40
2019-03-18T13:08:30.718Z,15.13
2019-03-18T13:10:59.150Z,14.38
2019-03-18T13:13:27.649Z,20.60
2019-03-18T13:15:56.077Z,19.37
2019-03-18T13:18:27.622Z,23.18
2019-03-18T13:21:07.366Z,21.93
2019-03-18T13:23:26.297Z,24.50
2019-03-18T13:25:54.760Z,23.38
2019-03-18T13:28:23.209Z,32.75
2019-03-18T13:30:51.692Z,37.65
2019-03-18T13:33:20.203Z,32.85
2019-03-18T13:35:48.869Z,33.98
2019-03-18T13:38:17.425Z,26.55
2019-03-18T13:40:46.164Z,15.18
2019-03-18T13:43:14.669Z,18.65
2019-03-18T13:45:54.834Z,12.93
2019-03-18T13:48:13.278Z,13.80
2019-03-18T13:50:47.484Z,14.58
2019-03-18T13:53:15.908Z,20.57
2019-03-18T13:55:44.429Z,17.32
2019-03-18T13:58:12.854Z,21.68
2019-03-18T14:00:41.308Z,25.20
2019-03-18T14:03:09.825Z,22.05
2019-03-18T14:05:38.254Z,25.23
2019-03-18T14:08:06.697Z,25.20
2019-03-18T14:10:35.166Z,22.77
2019-03-18T14:13:03.592Z,33.95
2019-03-18T14:15:32.034Z,29.27
2019-03-18T14:18:00.467Z,24.47
2019-03-18T14:20:29.671Z,43.68
2019-03-18T14:22:58.099Z,32.23
2019-03-18T14:25:26.533Z,33.23
2019-03-18T14:27:54.981Z,36.63
2019-03-18T14:30:23.989Z,34.03
2019-03-18T14:32:52.726Z,35.30
2019-03-18T14:35:21.988Z,34.33
2019-03-18T14:37:51.041Z,35.08
2019-03-18T14:40:23.336Z,31.70
2019-03-18T14:42:51.879Z,35.60
2019-03-18T14:45:23.951Z,32.25
2019-03-18T14:47:52.479Z,25.27
2019-03-18T14:50:24.088Z,26.00
2019-03-18T14:52:52.540Z,26.27
2019-03-18T14:55:21.050Z,27.87
2019-03-18T14:57:49.762Z,34.30
2019-03-18T15:00:29.265Z,29.32
2019-03-18T15:02:57.723Z,37.38
2019-03-18T15:05:26.217Z,33.60
2019-03-18T15:07:54.733Z,38.45
2019-03-18T15:10:24.977Z,35.80
2019-03-18T15:12:53.466Z,33.02
2019-03-18T15:15:21.972Z,38.53
2019-03-18T15:17:50.473Z,23.65
2019-03-18T15:20:23.883Z,34.18
2019-03-18T15:22:52.333Z,26.57
2019-03-18T15:25:25.645Z,21.05
2019-03-18T15:27:55.997Z,22.15
2019-03-18T15:30:24.453Z,21.12
2019-03-18T15:32:52.974Z,19.55
2019-03-18T15:35:21.432Z,27.30
2019-03-18T15:37:50.831Z,28.42
2019-03-18T15:40:43.127Z,24.40
2019-03-18T15:43:11.551Z,38.65
2019-03-18T15:45:40.054Z,39.63
2019-03-18T15:48:08.492Z,34.33
2019-03-18T15:50:36.935Z,31.23
2019-03-18T15:53:05.377Z,39.58
2019-03-18T15:55:33.821Z,35.75
2019-03-18T15:58:02.246Z,35.85
2019-03-18T16:00:31.822Z,36.17
2019-03-18T16:03:00.717Z,25.88
2019-03-18T16:05:29.229Z,22.32
2019-03-18T16:07:58.153Z,34.55
2019-03-18T16:10:26.662Z,30.70
2019-03-18T16:12:55.177Z,35.20
2019-03-18T16:15:23.675Z,26.20
2019-03-18T16:18:11.581Z,33.55
2019-03-18T16:20:40.059Z,36.58
2019-03-18T16:23:09.531Z,32.98
2019-03-18T16:25:40.021Z,28.45
2019-03-18T16:28:08.499Z,33.65
2019-03-18T16:30:37.058Z,34.18
2019-03-18T16:33:05.574Z,37.25
2019-03-18T16:35:39.775Z,30.95
2019-03-18T16:38:08.357Z,45.95
2019-03-18T16:40:37.401Z,36.15
2019-03-18T16:43:07.200Z,37.83
2019-03-18T16:45:35.789Z,40.90
2019-03-18T16:48:04.420Z,36.08
2019-03-18T16:50:33.207Z,38.78
2019-03-18T16:53:02.029Z,36.25
2019-03-18T16:55:30.696Z,46.23
2019-03-18T16:57:59.431Z,30.57
2019-03-18T17:00:28.442Z,40.15
2019-03-18T17:02:56.946Z,46.92
2019-03-18T17:05:26.536Z,41.18
2019-03-18T17:07:55.141Z,39.60
2019-03-18T17:10:23.672Z,36.33
2019-03-18T17:12:52.113Z,36.85
2019-03-18T17:15:22.564Z,32.80
2019-03-18T17:18:01.030Z,34.63
2019-03-18T17:20:29.539Z,21.33
2019-03-18T17:25:53.574Z,30.48
2019-03-18T17:28:22.365Z,31.15
2019-03-18T17:30:53.572Z,32.58
2019-03-18T17:33:22.194Z,35.43
2019-03-18T17:35:55.799Z,31.60
2019-03-18T17:38:24.462Z,28.47
2019-03-18T17:40:53.027Z,37.93
2019-03-18T17:43:23.135Z,42.83
2019-03-18T17:45:51.578Z,29.75
2019-03-18T17:51:54.936Z,37.63
2019-03-18T17:54:28.670Z,35.25
2019-03-18T18:00:05.708Z,22.02
2019-03-18T18:02:34.985Z,20.55
2019-03-18T18:05:24.891Z,23.15
2019-03-18T18:07:53.240Z,17.17
2019-03-18T18:10:22.838Z,19.75
2019-03-18T18:13:04.569Z,18.25
2019-03-18T18:15:45.446Z,15.43
2019-03-18T18:18:15.707Z,15.15
2019-03-18T18:20:45.980Z,18.35
2019-03-18T18:23:15.180Z,16.02
2019-03-18T18:25:43.896Z,20.02
2019-03-18T18:28:12.496Z,25.00
2019-03-18T18:30:40.933Z,20.20
2019-03-18T18:33:09.363Z,25.23
2019-03-18T18:35:37.923Z,26.05
2019-03-18T18:38:06.407Z,26.87
2019-03-18T18:40:34.927Z,26.75
2019-03-18T18:43:03.482Z,23.25
2019-03-18T18:45:32.039Z,25.72
2019-03-18T18:48:00.560Z,26.95
2019-03-18T18:50:29.154Z,24.47
2019-03-18T18:52:57.680Z,25.15
2019-03-18T18:55:26.209Z,28.98
2019-03-18T18:57:56.886Z,23.70
2019-03-18T19:03:20.150Z,28.40
2019-03-18T19:05:48.794Z,26.97
2019-03-18T19:08:17.350Z,26.10
2019-03-18T19:10:46.342Z,33.13
2019-03-18T19:13:17.615Z,23.52
2019-03-18T19:15:45.085Z,31.25
2019-03-18T19:18:13.551Z,30.32
2019-03-18T19:20:42.233Z,30.17
2019-03-18T19:23:10.785Z,32.40
2019-03-18T19:25:39.418Z,36.33
2019-03-18T19:28:10.113Z,28.07
2019-03-18T19:30:38.628Z,27.40
2019-03-18T19:33:07.209Z,30.32
2019-03-18T19:35:35.641Z,30.97
2019-03-18T19:38:06.969Z,32.50
2019-03-18T19:40:54.900Z,35.35
2019-03-18T19:43:23.333Z,24.37
2019-03-18T19:45:51.763Z,25.02
2019-03-18T19:48:23.042Z,33.15
2019-03-18T19:50:51.478Z,30.65
2019-03-18T19:53:20.011Z,38.80
2019-03-18T19:55:48.526Z,35.30
2019-03-18T19:58:17.095Z,33.63
2019-03-18T20:00:48.471Z,32.10
2019-03-18T20:03:19.639Z,28.20
2019-03-18T20:05:48.200Z,30.92
2019-03-18T20:08:16.640Z,30.10
2019-03-18T20:10:45.144Z,35.98
2019-03-18T20:13:13.674Z,28.23
2019-03-18T20:15:44.149Z,24.07
2019-03-18T20:18:12.604Z,30.72
2019-03-18T20:20:45.725Z,31.80
2019-03-18T20:23:15.750Z,34.58
2019-03-18T20:25:44.178Z,27.58
2019-03-18T20:28:12.722Z,31.90
2019-03-18T20:30:41.165Z,35.05
2019-03-18T20:33:09.604Z,31.70
2019-03-18T20:35:38.043Z,28.70
2019-03-18T20:38:06.516Z,26.82
2019-03-18T20:40:35.003Z,34.38
2019-03-18T20:43:03.438Z,37.45
2019-03-18T20:45:33.266Z,33.95
2019-03-18T20:48:03.309Z,28.20
2019-03-18T20:50:36.082Z,27.55
2019-03-18T20:53:03.555Z,37.88
2019-03-18T20:55:31.989Z,35.23
2019-03-18T20:58:00.461Z,27.60
2019-03-18T21:00:28.954Z,36.23
2019-03-18T21:02:57.383Z,37.45
2019-03-18T21:05:25.892Z,27.35
2019-03-18T21:07:54.919Z,34.00
2019-03-18T21:10:23.424Z,33.13
2019-03-18T21:12:51.942Z,30.55
2019-03-18T21:15:20.539Z,28.25
2019-03-18T21:17:49.093Z,35.85
2019-03-18T21:20:22.801Z,33.98
2019-03-18T21:22:52.792Z,39.40
2019-03-18T21:25:21.230Z,33.13
2019-03-18T21:27:49.691Z,32.03
2019-03-18T21:30:20.549Z,30.10
2019-03-18T21:32:49.238Z,29.55
2019-03-18T21:35:17.718Z,34.20
2019-03-18T21:37:47.039Z,29.40
2019-03-18T21:40:24.917Z,33.02
2019-03-18T21:42:53.438Z,33.10
2019-03-18T21:45:29.022Z,43.45
2019-03-18T21:47:55.110Z,34.55
2019-03-18T21:50:23.927Z,34.15
2019-03-18T21:52:52.346Z,38.60
2019-03-18T21:55:25.463Z,39.38
2019-03-18T21:57:55.092Z,34.88
2019-03-18T22:00:23.975Z,34.43
2019-03-18T22:02:53.080Z,39.98
2019-03-18T22:05:21.676Z,31.55
2019-03-18T22:07:50.143Z,36.63
2019-03-18T22:10:22.878Z,32.75
2019-03-18T22:12:51.303Z,36.03
2019-03-18T22:15:21.146Z,30.23
2019-03-18T22:17:49.650Z,39.75
2019-03-18T22:20:22.742Z,36.40
2019-03-18T22:22:51.194Z,37.48
2019-03-18T22:25:19.703Z,39.70
2019-03-18T22:27:48.160Z,33.05
2019-03-18T22:30:20.471Z,29.77
2019-03-18T22:32:48.981Z,38.10
2019-03-18T22:35:17.430Z,41.28
2019-03-18T22:37:45.910Z,37.20
2019-03-18T22:40:16.467Z,36.48
2019-03-18T22:42:45.038Z,32.63
2019-03-18T22:45:15.487Z,32.23
2019-03-18T22:47:43.946Z,32.95
2019-03-18T22:50:13.785Z,33.33
2019-03-18T22:52:42.294Z,42.00
2019-03-18T22:55:14.770Z,33.85
2019-03-18T22:57:43.335Z,33.83
2019-03-18T23:00:21.292Z,37.53
2019-03-18T23:02:50.116Z,27.77
2019-03-18T23:05:18.672Z,35.88
2019-03-18T23:07:47.120Z,31.90
2019-03-18T23:10:15.550Z,30.23
2019-03-18T23:12:44.038Z,26.45
2019-03-18T23:15:12.649Z,33.98
2019-03-18T23:17:41.462Z,23.92
2019-03-18T23:20:10.063Z,23.18
2019-03-18T23:22:38.482Z,24.40
2019-03-18T23:25:08.168Z,27.35
2019-03-18T23:27:36.952Z,31.68
2019-03-18T23:30:07.942Z,33.50
2019-03-18T23:32:36.389Z,28.47
2019-03-18T23:35:06.371Z,36.05
2019-03-18T23:37:34.805Z,39.85
2019-03-18T23:40:04.970Z,31.37
2019-03-18T23:42:33.406Z,32.80
2019-03-18T23:45:01.847Z,29.42
2019-03-18T23:47:30.291Z,31.85
2019-03-18T23:49:58.737Z,37.28
2019-03-18T23:52:27.173Z,33.00
2019-03-18T23:54:55.607Z,32.88
2019-03-18T23:57:24.038Z,27.22
2019-03-18T23:59:52.482Z,36.17
